Time;durP1;ratioP1;P1;durP2;ratioP2;P2;SDS_P1;SDS_P2;PMS_P1;PMS_P2;Temp;Humidity;BMP_temperature;BMP_pressure;BME280_temperature;BME280_humidity;BME280_pressure;Samples;Min_cycle;Max_cycle;Signal;HPM_P1;HPM_P2
2022/03/05 00:00:55;;;;;;;100.15;89.65;;;;;;;0.66;63.33;100886.97;1760312;81;26345;-77
2022/03/05 00:03:24;;;;;;;52.90;43.70;;;;;;;0.65;63.32;100886.70;1733292;81;25624;-77
2022/03/05 00:05:50;;;;;;;28.60;14.53;;;;;;;0.68;63.31;100889.71;1766586;79;25628;-77
2022/03/05 00:08:17;;;;;;;25.88;13.15;;;;;;;0.69;63.21;100895.84;1760314;81;27355;-77
2022/03/05 00:10:44;;;;;;;22.07;11.05;;;;;;;0.67;63.40;100896.06;1801256;79;25691;-76
2022/03/05 00:13:11;;;;;;;14.90;8.48;;;;;;;0.66;63.41;100890.44;1801447;79;25673;-77
2022/03/05 00:15:37;;;;;;;16.32;8.33;;;;;;;0.66;63.30;100886.44;1801185;79;25728;-76
2022/03/05 00:18:04;;;;;;;15.98;8.60;;;;;;;0.66;63.24;100886.97;1801369;79;25700;-77
2022/03/05 00:20:31;;;;;;;14.50;7.72;;;;;;;0.67;63.23;100893.40;1801417;79;27332;-77
2022/03/05 00:22:58;;;;;;;18.30;9.50;;;;;;;0.66;63.24;100882.98;1801057;79;25770;-76
2022/03/05 00:25:25;;;;;;;18.80;10.10;;;;;;;0.65;63.11;100885.37;1768999;79;25704;-79
2022/03/05 00:27:53;;;;;;;25.68;13.75;;;;;;;0.63;62.88;100881.59;1760463;80;26260;-77
2022/03/05 00:30:21;;;;;;;21.35;10.15;;;;;;;0.65;62.94;100881.37;1801262;79;25649;-76
2022/03/05 00:32:47;;;;;;;13.38;7.78;;;;;;;0.65;63.00;100881.37;1760679;81;28382;-76
2022/03/05 00:35:14;;;;;;;15.10;6.55;;;;;;;0.64;62.98;100878.41;1769830;79;25745;-77
2022/03/05 00:37:41;;;;;;;12.98;7.45;;;;;;;0.64;62.93;100880.54;1801231;79;25437;-77
2022/03/05 00:40:09;;;;;;;10.48;6.55;;;;;;;0.64;63.07;100875.74;1801312;79;25681;-76
2022/03/05 00:42:36;;;;;;;9.10;5.60;;;;;;;0.66;62.95;100878.98;1801422;79;25481;-77
2022/03/05 00:45:05;;;;;;;10.15;4.62;;;;;;;0.64;62.88;100876.55;1801350;79;27392;-77
2022/03/05 00:47:34;;;;;;;8.65;4.37;;;;;;;0.63;62.84;100871.45;1801393;79;25604;-77
2022/03/05 00:50:05;;;;;;;7.87;4.47;;;;;;;0.62;63.07;100875.97;1801692;79;25685;-78
2022/03/05 00:52:31;;;;;;;6.78;3.67;;;;;;;0.63;63.09;100874.11;1801263;79;25748;-77
2022/03/05 00:54:58;;;;;;;9.08;4.47;;;;;;;0.61;62.92;100871.67;1801483;79;25757;-77
2022/03/05 00:57:24;;;;;;;9.20;4.37;;;;;;;0.60;62.87;100871.39;1801349;79;27343;-77
2022/03/05 00:59:51;;;;;;;8.50;4.28;;;;;;;0.59;62.97;100876.41;1801230;79;25737;-77
2022/03/05 01:02:17;;;;;;;10.68;4.58;;;;;;;0.60;62.91;100874.59;1792553;79;25613;-77
2022/03/05 01:04:44;;;;;;;9.70;4.55;;;;;;;0.59;62.95;100873.75;1771292;81;25606;-78
2022/03/05 01:07:11;;;;;;;8.15;5.10;;;;;;;0.59;63.12;100873.75;1771895;80;25461;-77
2022/03/05 01:09:37;;;;;;;8.98;4.55;;;;;;;0.58;62.88;100866.83;1771282;80;27317;-78
2022/03/05 01:12:04;;;;;;;8.03;4.20;;;;;;;0.57;62.97;100867.05;1771444;81;25612;-78
2022/03/05 01:14:31;;;;;;;8.28;4.87;;;;;;;0.55;62.90;100869.41;1771944;80;25616;-77
2022/03/05 01:16:57;;;;;;;11.48;4.10;;;;;;;0.55;62.83;100868.61;1771605;81;25657;-77
2022/03/05 01:19:24;;;;;;;8.80;4.58;;;;;;;0.54;62.74;100872.30;1771957;80;25634;-77
2022/03/05 01:21:50;;;;;;;9.95;4.55;;;;;;;0.53;62.67;100874.69;1771893;81;27308;-78
2022/03/05 01:24:17;;;;;;;7.87;4.05;;;;;;;0.53;62.56;100870.69;1772099;81;25776;-76
2022/03/05 01:26:44;;;;;;;7.95;4.10;;;;;;;0.51;62.45;100872.25;1772809;80;25699;-79
2022/03/05 01:29:10;;;;;;;10.00;4.53;;;;;;;0.50;62.34;100875.13;1772097;81;25484;-77
2022/03/05 01:31:37;;;;;;;7.15;3.83;;;;;;;0.49;62.35;100872.17;1771602;80;26343;-77
2022/03/05 01:34:03;;;;;;;11.48;4.78;;;;;;;0.48;62.37;100867.91;1771348;80;27405;-78
2022/03/05 01:36:29;;;;;;;8.53;4.62;;;;;;;0.48;62.32;100871.36;1771829;80;25648;-77
2022/03/05 01:38:56;;;;;;;11.08;5.12;;;;;;;0.47;62.27;100873.72;1771219;81;25727;-77
2022/03/05 01:41:22;;;;;;;9.35;4.55;;;;;;;0.45;62.27;100873.14;1771827;81;25850;-76
2022/03/05 01:43:51;;;;;;;7.15;4.20;;;;;;;0.43;62.13;100871.23;1771420;80;25729;-76
2022/03/05 01:46:30;;;;;;;7.97;4.67;;;;;;;0.44;62.21;100882.69;1771691;80;27270;-76
2022/03/05 01:48:57;;;;;;;5.95;3.40;;;;;;;0.42;62.23;100880.78;1771804;80;25607;-76
2022/03/05 01:51:25;;;;;;;8.28;4.75;;;;;;;0.41;62.19;100883.13;1771458;81;26184;-77
2022/03/05 01:53:51;;;;;;;6.87;5.03;;;;;;;0.39;62.33;100873.23;1770996;80;26277;-77
2022/03/05 01:56:19;;;;;;;11.65;5.25;;;;;;;0.36;62.39;100883.30;1772293;81;25626;-77
2022/03/05 01:58:46;;;;;;;9.45;4.92;;;;;;;0.38;62.32;100882.28;1771466;81;27333;-76
2022/03/05 02:01:13;;;;;;;12.73;5.30;;;;;;;0.36;62.22;100881.98;1771725;80;25326;-78
2022/03/05 02:03:41;;;;;;;10.43;4.70;;;;;;;0.34;62.39;100881.39;1771793;79;25611;-78
2022/03/05 02:06:08;;;;;;;11.30;5.75;;;;;;;0.34;62.35;100881.39;1772030;80;25565;-77
2022/03/05 02:08:34;;;;;;;9.50;5.00;;;;;;;0.33;62.29;100875.77;1706809;84;25721;-76
2022/03/05 02:11:01;;;;;;;7.50;4.17;;;;;;;0.34;62.34;100883.22;1689089;84;27952;-76
2022/03/05 02:13:27;;;;;;;5.90;4.30;;;;;;;0.32;62.33;100880.81;1707244;84;25416;-76
2022/03/05 02:15:56;;;;;;;9.05;4.58;;;;;;;0.32;62.43;100884.81;1741602;81;25646;-76
2022/03/05 02:18:24;;;;;;;11.57;5.05;;;;;;;0.33;62.37;100881.09;1761300;81;25681;-78
2022/03/05 02:20:52;;;;;;;7.35;4.60;;;;;;;0.32;62.47;100878.66;1761971;81;25271;-79
2022/03/05 02:23:19;;;;;;;10.43;4.90;;;;;;;0.32;62.39;100877.33;1762351;81;27277;-77
2022/03/05 02:25:59;;;;;;;8.55;4.47;;;;;;;0.30;62.33;100876.74;1771690;81;25646;-78
2022/03/05 02:28:26;;;;;;;;;;;;;;;0.29;62.38;100873.28;1774476;80;25731;-77
2022/03/05 02:30:54;;;;;;;10.13;4.67;;;;;;;0.30;62.44;100878.08;1771586;80;25643;-78
2022/03/05 02:33:21;;;;;;;9.38;6.17;;;;;;;0.28;62.40;100871.64;1772284;80;25451;-78
2022/03/05 02:35:48;;;;;;;9.53;4.92;;;;;;;0.27;62.52;100870.01;1772223;80;27307;-77
2022/03/05 02:38:18;;;;;;;9.30;4.65;;;;;;;0.26;62.43;100869.73;1771529;80;25600;-78
2022/03/05 02:40:46;;;;;;;10.45;4.35;;;;;;;0.24;62.55;100871.81;1771441;81;25644;-78
2022/03/05 02:43:14;;;;;;;8.88;4.40;;;;;;;0.23;62.57;100870.18;1771919;80;25678;-78
2022/03/05 02:45:42;;;;;;;8.95;4.72;;;;;;;0.21;62.38;100872.26;1744337;80;25662;-78
2022/03/05 02:48:12;;;;;;;6.87;4.12;;;;;;;0.22;62.61;100873.06;1771892;80;27384;-78
2022/03/05 02:50:40;;;;;;;11.12;5.00;;;;;;;0.22;62.72;100878.38;1771992;80;25786;-78
2022/03/05 02:53:07;;;;;;;9.63;4.65;;;;;;;0.21;62.60;100872.26;1772236;80;25614;-78
2022/03/05 02:55:35;;;;;;;11.08;4.90;;;;;;;0.21;62.68;100875.45;1772716;80;25788;-78
2022/03/05 02:58:03;;;;;;;7.05;4.67;;;;;;;0.19;62.86;100879.66;1772884;81;25418;-79
2022/03/05 03:00:29;;;;;;;10.78;5.55;;;;;;;0.19;62.80;100877.00;1773053;80;27323;-79
2022/03/05 03:02:56;;;;;;;8.88;4.70;;;;;;;0.18;62.93;100878.03;1728625;79;26004;-78
2022/03/05 03:05:23;;;;;;;8.95;5.05;;;;;;;0.15;62.89;100879.30;1802847;79;25549;-79
2022/03/05 03:07:49;;;;;;;10.72;5.05;;;;;;;0.15;62.95;100875.31;1802675;79;25669;-79
2022/03/05 03:10:17;;;;;;;9.85;5.22;;;;;;;0.16;63.21;100886.23;1802559;79;25624;-79
2022/03/05 03:12:44;;;;;;;11.05;4.65;;;;;;;0.15;63.24;100880.63;1802562;79;27305;-78
2022/03/05 03:15:14;;;;;;;8.90;5.45;;;;;;;0.17;63.17;100884.37;1802484;79;25564;-78
2022/03/05 03:17:44;;;;;;;8.85;4.97;;;;;;;0.15;63.17;100881.97;1801881;79;25669;-79
2022/03/05 03:20:13;;;;;;;9.50;5.10;;;;;;;0.15;63.19;100878.47;1801826;79;25614;-78
2022/03/05 03:22:40;;;;;;;10.78;5.00;;;;;;;0.13;63.27;100877.36;1771206;79;25399;-79
2022/03/05 03:25:08;;;;;;;7.37;4.62;;;;;;;0.14;63.25;100884.84;1801836;79;27958;-78
2022/03/05 03:27:35;;;;;;;9.83;4.78;;;;;;;0.12;63.06;100883.73;1802361;79;25636;-79
2022/03/05 03:30:04;;;;;;;7.55;4.45;;;;;;;0.13;63.11;100881.88;1802710;79;25604;-79
2022/03/05 03:32:31;;;;;;;8.80;4.95;;;;;;;0.12;63.03;100886.90;1802638;79;26286;-78
2022/03/05 03:34:58;;;;;;;11.78;5.40;;;;;;;0.12;63.01;100884.23;1802177;79;25652;-78
2022/03/05 03:37:28;;;;;;;10.32;4.25;;;;;;;0.12;63.22;100886.40;1802102;79;27326;-79
2022/03/05 03:39:53;;;;;;;12.63;5.03;;;;;;;0.12;63.42;100890.39;1801727;79;25584;-79
2022/03/05 03:42:19;;;;;;;10.10;4.75;;;;;;;0.13;63.34;100892.52;1770288;79;25565;-79
2022/03/05 03:44:46;;;;;;;11.43;4.75;;;;;;;0.09;63.28;100894.02;1802138;79;26161;-79
2022/03/05 03:47:12;;;;;;;10.30;4.75;;;;;;;0.09;63.49;100894.83;1770687;79;25665;-79
2022/03/05 03:49:39;;;;;;;8.45;4.72;;;;;;;0.09;63.58;100902.00;1802131;79;27307;-79
2022/03/05 03:52:06;;;;;;;10.10;5.40;;;;;;;0.07;63.58;100892.08;1802044;79;25447;-78
2022/03/05 03:54:32;;;;;;;9.85;5.00;;;;;;;0.07;63.51;100901.39;1801987;79;25408;-78
2022/03/05 03:56:59;;;;;;;7.17;4.15;;;;;;;0.05;63.50;100897.65;1801968;79;26307;-78
2022/03/05 03:59:25;;;;;;;6.87;4.25;;;;;;;0.05;63.79;100896.81;1801794;79;25639;-79
2022/03/05 04:01:51;;;;;;;10.45;4.53;;;;;;;0.06;63.74;100901.11;1801771;79;27368;-78
2022/03/05 04:04:18;;;;;;;8.15;4.50;;;;;;;0.05;63.84;100909.62;1793914;79;25567;-78
2022/03/05 04:09:29;;;;;;;8.65;4.65;;;;;;;0.05;64.00;100899.48;1791058;80;25699;-78
2022/03/05 04:11:56;;;;;;;8.68;4.22;;;;;;;0.05;63.90;100908.78;1768485;80;25603;-79
2022/03/05 04:14:22;;;;;;;8.10;4.17;;;;;;;0.04;64.02;100910.64;1769934;80;27328;-79
2022/03/05 04:16:49;;;;;;;7.55;4.78;;;;;;;0.04;63.96;100913.83;1792167;80;25276;-79
2022/03/05 04:19:15;;;;;;;7.87;4.30;;;;;;;0.04;63.87;100912.50;1792356;80;25570;-79
2022/03/05 04:21:42;;;;;;;8.83;4.97;;;;;;;0.03;64.11;100912.20;1769765;80;26295;-79
2022/03/05 04:24:08;;;;;;;9.33;5.37;;;;;;;0.02;64.12;100908.73;1791755;80;25676;-79
2022/03/05 04:26:35;;;;;;;12.95;5.22;;;;;;;0.03;64.34;100912.20;1791767;80;27324;-79
2022/03/05 04:29:01;;;;;;;8.38;5.15;;;;;;;0.02;64.30;100914.55;1791669;80;25234;-79
2022/03/05 04:31:28;;;;;;;7.10;5.08;;;;;;;0.01;64.37;100916.41;1791619;80;25791;-79
2022/03/05 04:33:54;;;;;;;9.38;5.10;;;;;;;0.01;64.33;100915.08;1791659;80;25704;-78
2022/03/05 04:36:21;;;;;;;7.95;4.95;;;;;;;0.01;64.31;100916.94;1791726;80;25519;-79
2022/03/05 04:38:47;;;;;;;10.48;5.12;;;;;;;0.03;64.23;100910.86;1791967;80;27212;-79
2022/03/05 04:41:14;;;;;;;8.90;5.50;;;;;;;0.03;64.47;100910.86;1791862;80;25556;-79
2022/03/05 04:43:40;;;;;;;9.13;4.85;;;;;;;0.04;64.61;100917.82;1769686;80;25596;-79
2022/03/05 04:46:07;;;;;;;10.13;5.03;;;;;;;0.01;64.51;100915.60;1791460;80;25827;-79
2022/03/05 04:48:33;;;;;;;9.28;5.05;;;;;;;0.01;64.45;100916.41;1792109;80;25393;-79
2022/03/05 04:51:00;;;;;;;13.22;9.88;;;;;;;0.01;64.41;100916.41;1792994;80;27411;-79
2022/03/05 04:53:27;;;;;;;8.35;5.15;;;;;;;0.03;64.29;100917.52;1793552;79;25218;-79
2022/03/05 04:55:54;;;;;;;10.13;4.85;;;;;;;0.04;64.48;100920.48;1792212;80;25684;-79
2022/03/05 04:58:20;;;;;;;10.00;5.65;;;;;;;0.04;64.44;100924.47;1791764;80;25622;-79
2022/03/05 05:00:47;;;;;;;11.40;5.92;;;;;;;0.04;64.57;100927.94;1792104;79;25190;-78
2022/03/05 05:03:13;;;;;;;8.45;4.33;;;;;;;0.03;64.61;100930.29;1792714;79;27281;-79
2022/03/05 05:05:40;;;;;;;9.90;4.90;;;;;;;0.02;64.66;100929.17;1793642;80;25362;-79
2022/03/05 05:08:06;;;;;;;11.85;5.75;;;;;;;0.02;64.78;100937.16;1771073;80;25646;-79
2022/03/05 05:10:33;;;;;;;9.03;4.47;;;;;;;0.01;64.72;100939.02;1793009;80;25678;-78
2022/03/05 05:13:00;;;;;;;7.30;4.15;;;;;;;0.02;64.66;100941.14;1792735;80;25455;-79
2022/03/05 05:15:27;;;;;;;9.78;4.85;;;;;;;0.02;64.72;100937.16;1791948;80;27861;-80
2022/03/05 05:17:53;;;;;;;9.83;5.35;;;;;;;0.03;64.81;100941.45;1791892;79;25492;-79
2022/03/05 05:20:20;;;;;;;7.37;4.20;;;;;;;0.02;64.77;100935.33;1792073;80;25601;-80
2022/03/05 05:22:46;;;;;;;9.10;4.47;;;;;;;0.02;64.69;100938.48;1791740;80;26480;-78
2022/03/05 05:25:13;;;;;;;16.93;15.00;;;;;;;0.02;64.74;100938.48;1791832;80;25458;-79
2022/03/05 05:27:40;;;;;;;6.42;4.00;;;;;;;0.02;64.93;100945.14;1753760;81;28307;-78
2022/03/05 05:30:08;;;;;;;7.65;4.28;;;;;;;0.01;64.75;100947.52;1742758;82;25606;-78
2022/03/05 05:32:35;;;;;;;9.30;4.60;;;;;;;0.02;64.69;100950.45;1711352;82;25634;-79
2022/03/05 05:35:03;;;;;;;8.30;4.60;;;;;;;0.02;64.79;100950.45;1742828;82;25689;-79
2022/03/05 05:37:29;;;;;;;6.45;3.90;;;;;;;0.00;64.92;100952.03;1711717;82;25686;-79
2022/03/05 05:39:56;;;;;;;9.50;4.67;;;;;;;0.00;64.95;100950.70;1744013;82;27306;-80
2022/03/05 05:42:23;;;;;;;83.67;77.58;;;;;;;0.01;64.97;100956.83;1743887;82;25611;-80
2022/03/05 05:44:53;;;;;;;82.02;76.02;;;;;;;-0.01;65.15;100959.19;1744004;82;25659;-80
2022/03/05 05:47:19;;;;;;;81.95;76.05;;;;;;;-0.01;65.21;100947.22;1744104;82;25660;-80
2022/03/05 05:49:45;;;;;;;81.35;75.62;;;;;;;0.01;65.32;100954.97;1743887;81;25697;-79
2022/03/05 05:52:12;;;;;;;60.58;55.95;;;;;;;0.03;65.16;100957.41;1744030;82;27378;-79
2022/03/05 05:54:38;;;;;;;6.40;3.92;;;;;;;0.06;65.30;100963.09;1711035;82;25383;-80
2022/03/05 05:57:05;;;;;;;9.95;4.35;;;;;;;0.08;65.30;100971.66;1744067;82;25425;-80
2022/03/05 05:59:31;;;;;;;7.50;4.37;;;;;;;0.10;65.23;100970.11;1744005;81;25616;-80
2022/03/05 06:01:58;;;;;;;8.35;4.45;;;;;;;0.10;65.21;100969.62;1743953;82;25219;-80
2022/03/05 06:04:25;;;;;;;16.82;8.05;;;;;;;0.12;65.23;100972.86;1743669;82;27356;-80
2022/03/05 06:06:51;;;;;;;10.93;5.70;;;;;;;0.13;65.32;100972.33;1743477;82;26051;-80
2022/03/05 06:09:18;;;;;;;7.78;4.35;;;;;;;0.13;65.34;100971.81;1743870;82;25722;-80
2022/03/05 06:11:45;;;;;;;6.25;4.58;;;;;;;0.18;65.36;100973.81;1743583;81;26052;-79
2022/03/05 06:14:12;;;;;;;10.58;5.22;;;;;;;0.21;65.44;100971.23;1743413;82;25661;-79
2022/03/05 06:16:38;;;;;;;11.88;5.67;;;;;;;0.24;65.43;100980.08;1711562;82;27285;-79
2022/03/05 06:19:05;;;;;;;9.50;4.85;;;;;;;0.26;65.50;100980.69;1718375;82;25655;-79
2022/03/05 06:21:32;;;;;;;9.23;4.33;;;;;;;0.26;65.58;100980.16;1711787;82;25811;-79
2022/03/05 06:23:58;;;;;;;10.93;5.70;;;;;;;0.29;65.56;100982.38;1743176;82;25630;-79
2022/03/05 06:26:25;;;;;;;8.95;5.15;;;;;;;0.31;65.58;100984.30;1742934;81;25611;-79
2022/03/05 06:28:52;;;;;;;9.88;5.25;;;;;;;0.35;65.50;100988.66;1743243;82;27315;-79
2022/03/05 06:31:18;;;;;;;9.80;5.72;;;;;;;0.39;65.51;100985.83;1743297;81;25901;-79
2022/03/05 06:33:46;;;;;;;8.48;5.47;;;;;;;0.42;65.34;100989.91;1743285;81;25594;-80
2022/03/05 06:36:13;;;;;;;7.72;4.53;;;;;;;0.46;65.44;100987.08;1743407;82;26312;-78
2022/03/05 06:38:40;;;;;;;10.70;5.42;;;;;;;0.48;65.49;100987.16;1742492;81;25511;-78
2022/03/05 06:41:07;;;;;;;6.92;4.67;;;;;;;0.52;65.48;100988.85;1742516;82;27311;-78
2022/03/05 06:43:33;;;;;;;7.42;4.87;;;;;;;0.58;65.36;100997.28;1742424;81;25706;-78
2022/03/05 06:45:59;;;;;;;7.75;4.80;;;;;;;0.62;65.39;100994.98;1729519;82;25619;-78
2022/03/05 06:48:26;;;;;;;11.40;5.42;;;;;;;0.66;65.28;101000.13;1720064;83;25616;-79
2022/03/05 06:50:53;;;;;;;8.25;5.15;;;;;;;0.70;65.32;101006.13;1742444;82;25670;-79
2022/03/05 06:53:19;;;;;;;8.48;4.35;;;;;;;0.76;65.46;101003.06;1742341;82;27274;-78
2022/03/05 06:55:46;;;;;;;8.65;4.92;;;;;;;0.82;65.47;101002.17;1743118;81;25675;-79
2022/03/05 06:58:15;;;;;;;10.23;6.25;;;;;;;0.87;65.15;101002.80;1742938;82;25474;-79
2022/03/05 07:00:41;;;;;;;18.73;9.38;;;;;;;0.94;65.04;101008.88;1742876;82;25672;-79
2022/03/05 07:03:08;;;;;;;17.15;7.72;;;;;;;0.99;64.90;101006.34;1743158;82;25244;-79
2022/03/05 07:05:34;;;;;;;9.98;6.22;;;;;;;1.05;64.88;101008.61;1738338;82;27324;-80
2022/03/05 07:08:01;;;;;;;9.53;5.15;;;;;;;1.08;64.85;101006.83;1737872;82;25587;-79
2022/03/05 07:10:27;;;;;;;9.25;4.53;;;;;;;1.14;64.67;101014.41;1737708;82;25668;-78
2022/03/05 07:12:54;;;;;;;9.15;4.67;;;;;;;1.19;64.69;101010.55;1737490;82;25656;-79
2022/03/05 07:15:20;;;;;;;8.23;4.90;;;;;;;1.23;64.61;101005.87;1712800;82;25621;-79
2022/03/05 07:17:51;;;;;;;11.05;5.15;;;;;;;1.28;64.25;101009.99;1649728;87;27326;-78
2022/03/05 07:20:19;;;;;;;16.23;4.72;;;;;;;1.32;64.05;101012.20;1649117;87;25484;-78
2022/03/05 07:22:46;;;;;;;82.72;76.85;;;;;;;1.35;64.12;101008.55;1650342;87;25737;-78
2022/03/05 07:25:14;;;;;;;9.05;5.15;;;;;;;1.40;63.81;101016.67;1650280;86;25625;-79
2022/03/05 07:27:42;;;;;;;8.55;4.92;;;;;;;1.44;63.77;101021.02;1650213;87;25269;-79
2022/03/05 07:30:10;;;;;;;84.97;78.60;;;;;;;1.48;63.82;101019.51;1650686;87;27343;-79
2022/03/05 07:32:37;;;;;;;83.80;77.72;;;;;;;1.54;63.79;101015.12;1628228;87;25737;-79
2022/03/05 07:35:05;;;;;;;87.25;80.45;;;;;;;1.60;63.72;101014.19;1650132;87;25713;-78
2022/03/05 07:37:32;;;;;;;86.28;79.55;;;;;;;1.67;63.81;101020.24;1649303;87;26186;-78
2022/03/05 07:40:00;;;;;;;68.35;63.33;;;;;;;1.74;63.29;101024.10;1649491;87;25696;-79
2022/03/05 07:42:27;;;;;;;83.33;77.25;;;;;;;1.79;63.20;101031.72;1678112;84;27346;-78
2022/03/05 07:44:54;;;;;;;82.40;76.62;;;;;;;1.81;62.97;101022.16;1706547;83;25561;-78
2022/03/05 07:47:20;;;;;;;66.75;61.58;;;;;;;1.84;62.74;101021.69;1707113;83;25640;-78
2022/03/05 07:49:47;;;;;;;41.35;37.85;;;;;;;1.91;62.66;101025.55;1706823;84;26213;-78
2022/03/05 07:52:14;;;;;;;14.23;5.97;;;;;;;1.98;62.70;101024.93;1706508;83;25482;-80
2022/03/05 07:54:41;;;;;;;9.38;4.37;;;;;;;2.03;62.54;101024.50;1706474;84;27974;-79
2022/03/05 07:57:07;;;;;;;7.55;4.75;;;;;;;2.11;62.41;101029.19;1706099;84;25637;-79
2022/03/05 07:59:34;;;;;;;83.47;77.30;;;;;;;2.18;62.61;101021.86;1686104;84;25668;-80
2022/03/05 08:02:00;;;;;;;83.10;77.25;;;;;;;2.31;62.54;101028.28;1706805;83;25682;-80
2022/03/05 08:04:27;;;;;;;81.95;76.20;;;;;;;2.42;62.21;101023.98;1685501;83;25494;-80
2022/03/05 08:06:53;;;;;;;84.62;78.72;;;;;;;2.56;62.08;101024.52;1704981;84;27333;-80
2022/03/05 08:09:20;;;;;;;61.45;56.92;;;;;;;2.65;61.34;101027.63;1705240;84;25682;-80
2022/03/05 08:11:46;;;;;;;6.70;4.55;;;;;;;2.80;61.59;101031.91;1704930;84;25668;-80
2022/03/05 08:14:13;;;;;;;6.70;4.12;;;;;;;2.94;61.44;101031.09;1704653;84;25640;-79
2022/03/05 08:16:40;;;;;;;6.87;4.35;;;;;;;3.06;60.91;101039.86;1704513;84;25676;-80
2022/03/05 08:19:06;;;;;;;6.62;4.15;;;;;;;3.13;60.64;101039.71;1704934;84;27338;-81
2022/03/05 08:21:33;;;;;;;8.48;4.47;;;;;;;3.24;60.75;101038.05;1704782;84;25475;-81
2022/03/05 08:23:59;;;;;;;5.85;4.15;;;;;;;3.34;60.56;101036.34;1704827;84;25561;-82
2022/03/05 08:26:26;;;;;;;8.75;4.22;;;;;;;3.43;60.03;101036.75;1683879;84;25510;-80
2022/03/05 08:28:53;;;;;;;9.23;5.12;;;;;;;3.54;59.60;101041.22;1704860;84;25276;-81
2022/03/05 08:31:20;;;;;;;6.30;4.17;;;;;;;3.66;59.36;101043.81;1705173;84;27421;-79
2022/03/05 08:33:47;;;;;;;7.05;4.12;;;;;;;3.76;59.10;101049.02;1704477;84;25754;-80
2022/03/05 08:36:13;;;;;;;7.40;4.83;;;;;;;3.80;58.50;101041.61;1704569;84;25651;-80
2022/03/05 08:38:40;;;;;;;6.55;4.50;;;;;;;3.90;58.75;101044.97;1704517;84;25687;-80
2022/03/05 08:41:06;;;;;;;7.35;4.40;;;;;;;4.09;58.92;101044.96;1704498;84;25695;-80
2022/03/05 08:43:33;;;;;;;7.83;4.60;;;;;;;4.28;58.66;101045.47;1704550;84;27340;-80
2022/03/05 08:46:01;;;;;;;4.83;4.05;;;;;;;4.43;57.85;101050.76;1704598;84;25668;-81
2022/03/05 08:48:29;;;;;;;6.20;4.03;;;;;;;4.51;57.27;101051.64;1705028;82;25696;-81
2022/03/05 08:50:56;;;;;;;21.40;4.60;;;;;;;4.58;57.07;101050.95;1709106;82;25693;-76
2022/03/05 08:53:23;;;;;;;9.13;4.55;;;;;;;4.64;56.75;101054.48;1705391;84;25641;-78
2022/03/05 08:55:49;;;;;;;4.92;4.10;;;;;;;4.67;56.39;101058.81;1705236;84;27358;-78
2022/03/05 08:58:16;;;;;;;7.97;4.30;;;;;;;4.71;55.74;101055.63;1718224;81;25795;-78
2022/03/05 09:00:42;;;;;;;6.87;3.83;;;;;;;4.72;55.39;101058.61;1722140;82;25790;-78
2022/03/05 09:03:09;;;;;;;8.08;4.37;;;;;;;4.70;54.98;101057.52;1733563;82;25660;-77
2022/03/05 09:05:36;;;;;;;6.22;4.28;;;;;;;4.72;54.96;101054.59;1711450;82;25789;-77
2022/03/05 09:08:03;;;;;;;6.55;4.53;;;;;;;4.78;54.78;101054.36;1719971;81;27369;-79
2022/03/05 09:10:30;;;;;;;6.37;4.47;;;;;;;4.82;54.28;101049.34;1706868;82;25497;-79
2022/03/05 09:12:56;;;;;;;5.95;3.42;;;;;;;4.79;54.16;101061.35;1764128;80;25418;-79
2022/03/05 09:15:23;;;;;;;6.65;4.60;;;;;;;4.76;53.96;101057.03;1703438;82;26209;-78
2022/03/05 09:17:49;;;;;;;6.62;3.92;;;;;;;4.77;53.30;101060.00;1727396;80;25659;-78
2022/03/05 09:20:16;;;;;;;5.42;3.55;;;;;;;4.73;53.15;101064.23;1763423;80;27968;-78
2022/03/05 09:22:42;;;;;;;9.33;5.12;;;;;;;4.68;52.94;101056.42;1725615;82;25630;-79
2022/03/05 09:25:10;;;;;;;15.53;7.55;;;;;;;4.61;52.62;101063.02;1736194;82;25530;-79
2022/03/05 09:27:38;;;;;;;6.20;4.00;;;;;;;4.50;52.30;101062.09;1714651;82;26197;-79
2022/03/05 09:30:07;;;;;;;5.20;3.67;;;;;;;4.41;52.56;101062.23;1713446;83;25620;-79
2022/03/05 09:32:34;;;;;;;7.15;3.60;;;;;;;4.39;52.63;101067.86;1695841;82;27356;-77
2022/03/05 09:35:00;;;;;;;3.77;3.30;;;;;;;4.36;52.71;101064.34;1715344;82;25666;-76
2022/03/05 09:37:28;;;;;;;3.80;2.87;;;;;;;4.31;52.08;101068.29;1702522;82;25538;-76
2022/03/05 09:39:55;;;;;;;6.20;2.75;;;;;;;4.22;52.10;101072.44;1741073;82;25778;-75
2022/03/05 09:42:21;;;;;;;4.33;2.87;;;;;;;4.20;52.10;101069.20;1770848;79;25772;-76
2022/03/05 09:44:48;;;;;;;3.37;2.60;;;;;;;4.15;51.96;101066.45;1771709;79;27552;-76
2022/03/05 09:47:16;;;;;;;3.72;2.40;;;;;;;4.13;51.84;101077.41;1747623;81;25598;-76
2022/03/05 09:49:43;;;;;;;7.47;3.30;;;;;;;4.08;51.61;101079.47;1793967;79;25641;-75
2022/03/05 09:52:10;;;;;;;3.60;2.77;;;;;;;4.02;51.26;101076.97;1771374;79;26268;-76
2022/03/05 09:54:37;;;;;;;4.03;3.00;;;;;;;3.95;51.12;101078.50;1781326;79;25664;-75
2022/03/05 09:57:13;;;;;;;4.33;2.70;;;;;;;3.92;51.42;101076.31;1791319;79;27328;-75
2022/03/05 09:59:39;;;;;;;4.20;2.58;;;;;;;3.93;51.62;101083.27;1753828;79;25756;-76
2022/03/05 10:02:07;;;;;;;3.58;2.45;;;;;;;3.91;51.39;101086.72;1732965;81;25513;-75
2022/03/05 10:04:35;;;;;;;5.60;3.05;;;;;;;3.86;51.04;101083.43;1631921;87;25855;-77
2022/03/05 10:07:17;;;;;;;4.53;2.72;;;;;;;3.85;51.06;101091.73;1625154;87;25787;-76
2022/03/05 10:09:47;;;;;;;4.87;2.90;;;;;;;3.83;51.21;101085.79;1651997;86;28008;-75
2022/03/05 10:12:34;;;;;;;3.30;2.72;;;;;;;3.75;50.64;101089.70;1651382;86;25765;-75
2022/03/05 10:15:21;;;;;;;2.15;1.87;;;;;;;3.70;50.57;101094.44;1651502;86;25636;-75
2022/03/05 10:17:58;;;;;;;2.90;2.45;;;;;;;3.69;50.34;101094.14;1632145;86;26254;-76
2022/03/05 10:20:31;;;;;;;9.95;4.28;;;;;;;3.67;50.47;101090.91;1651787;86;25701;-74
2022/03/05 10:23:05;;;;;;;12.60;5.85;;;;;;;3.68;50.18;101102.44;1650995;86;27937;-76
2022/03/05 10:25:44;;;;;;;6.45;4.58;;;;;;;3.61;50.21;101096.41;1651733;86;25738;-74
2022/03/05 10:28:27;;;;;;;5.17;3.67;;;;;;;3.61;50.64;101099.09;1652025;86;27190;-73
2022/03/05 10:31:10;;;;;;;3.77;2.90;;;;;;;3.55;50.46;101099.53;1670056;85;25858;-75
2022/03/05 10:33:47;;;;;;;4.60;2.92;;;;;;;3.53;50.55;101101.65;1656692;85;25704;-75
2022/03/05 10:36:23;;;;;;;5.15;2.30;;;;;;;3.53;50.07;101102.45;1661054;86;27517;-75
2022/03/05 10:38:59;;;;;;;4.78;2.80;;;;;;;3.54;50.07;101101.41;1681164;84;25584;-74
2022/03/05 10:41:38;;;;;;;4.12;2.83;;;;;;;3.50;49.88;101097.58;1670658;84;25809;-74
2022/03/05 10:44:12;;;;;;;5.12;3.25;;;;;;;3.52;50.10;101105.37;1689759;84;26421;-75
2022/03/05 10:46:48;;;;;;;5.25;2.90;;;;;;;3.51;50.01;101101.09;1676625;84;25598;-74
2022/03/05 10:49:39;;;;;;;5.10;3.05;;;;;;;3.48;50.06;101102.36;1666500;86;28021;-75
2022/03/05 10:52:10;;;;;;;4.50;3.17;;;;;;;3.46;50.43;101109.02;1656531;84;25735;-74
2022/03/05 10:54:44;;;;;;;4.70;2.98;;;;;;;3.43;50.22;101106.29;1685984;84;26299;-74
2022/03/05 10:57:18;;;;;;;5.67;3.05;;;;;;;3.41;49.99;101107.06;1702610;83;25632;-74
2022/03/05 10:59:51;;;;;;;6.95;3.85;;;;;;;3.37;49.84;101108.58;1703953;83;25777;-74
2022/03/05 11:02:20;;;;;;;4.45;3.08;;;;;;;3.34;49.92;101107.75;1748805;80;27348;-75
2022/03/05 11:04:48;;;;;;;3.72;2.72;;;;;;;3.30;49.79;101102.58;1784478;79;25697;-74
2022/03/05 11:07:17;;;;;;;5.92;3.25;;;;;;;3.30;49.87;101104.75;1801111;79;26333;-75
2022/03/05 11:09:44;;;;;;;4.10;2.90;;;;;;;3.32;49.89;101105.81;1801642;79;25731;-75
2022/03/05 11:12:18;;;;;;;3.37;2.62;;;;;;;3.36;50.02;101101.63;1784354;79;25457;-76
2022/03/05 11:14:49;;;;;;;4.22;2.95;;;;;;;3.33;49.64;101104.24;1795419;78;27928;-75
2022/03/05 11:17:17;;;;;;;7.10;4.05;;;;;;;3.31;49.19;101099.66;1796156;78;25714;-75
2022/03/05 11:19:44;;;;;;;7.62;4.47;;;;;;;3.30;49.09;101103.41;1816431;78;25737;-75
2022/03/05 11:22:13;;;;;;;9.03;4.12;;;;;;;3.26;49.46;101094.23;1803153;78;25642;-75
2022/03/05 11:24:42;;;;;;;8.10;3.95;;;;;;;3.30;49.43;101095.38;1778002;79;25707;-75
2022/03/05 11:27:16;;;;;;;5.75;2.58;;;;;;;3.32;49.08;101097.28;1809776;78;27358;-75
2022/03/05 11:29:56;;;;;;;7.17;3.65;;;;;;;3.33;49.43;101095.41;1769697;81;25765;-76
2022/03/05 11:32:37;;;;;;;5.83;3.25;;;;;;;3.39;49.22;101090.45;1770238;80;25754;-75
2022/03/05 11:35:28;;;;;;;5.35;3.42;;;;;;;3.41;48.95;101088.34;1770633;81;26194;-75